Time;durP1;ratioP1;P1;durP2;ratioP2;P2;SDS_P1;SDS_P2;PMS_P1;PMS_P2;Temp;Humidity;BMP_temperature;BMP_pressure;BME280_temperature;BME280_humidity;BME280_pressure;Samples;Min_cycle;Max_cycle;Signal;HPM_P1;HPM_P2
2022/11/01 00:01:10;;;;;;;407.48;26.30;;;;;;;17.06;81.09;98612.94;5299076;27;20072;-81
2022/11/01 00:03:37;;;;;;;314.00;21.05;;;;;;;17.11;80.73;98604.84;5299573;27;20064;-81
2022/11/01 00:06:04;;;;;;;232.25;17.12;;;;;;;17.22;79.25;98610.25;5299291;27;20076;-81
2022/11/01 00:08:31;;;;;;;331.92;24.10;;;;;;;16.45;83.55;98593.91;5299164;27;20058;-81
2022/11/01 00:11:04;;;;;;;324.42;24.67;;;;;;;17.10;80.41;98605.78;5299504;27;20418;-81
2022/11/01 00:13:32;;;;;;;129.52;16.45;;;;;;;16.56;83.42;98598.50;5278952;27;20491;-81
2022/11/01 00:15:59;;;;;;;157.98;20.35;;;;;;;16.54;81.92;98597.75;5299284;27;20399;-81
2022/11/01 00:18:26;;;;;;;38.28;11.12;;;;;;;16.07;84.57;98600.47;5299551;27;20057;-81
2022/11/01 00:20:53;;;;;;;89.60;18.12;;;;;;;16.13;83.80;98598.34;5298906;27;20706;-81
2022/11/01 00:23:20;;;;;;;103.90;17.15;;;;;;;16.44;83.51;98588.78;5299388;27;20053;-81
2022/11/01 00:25:47;;;;;;;225.05;22.05;;;;;;;16.48;82.61;98595.50;5299266;27;20057;-81
2022/11/01 00:28:14;;;;;;;99.37;16.95;;;;;;;16.46;82.45;98598.19;5298488;27;20065;-81
2022/11/01 00:30:41;;;;;;;76.82;15.30;;;;;;;16.52;81.44;98589.19;5299433;27;20121;-81
2022/11/01 00:33:08;;;;;;;83.62;17.08;;;;;;;16.71;81.05;98589.00;5299391;27;20405;-81
2022/11/01 00:35:37;;;;;;;193.48;19.12;;;;;;;16.62;81.66;98589.50;5279324;27;20503;-81
2022/11/01 00:38:05;;;;;;;225.60;19.42;;;;;;;15.96;85.00;98589.84;5299498;27;20087;-81
2022/11/01 00:40:32;;;;;;;296.48;23.12;;;;;;;15.71;85.19;98587.72;5299222;27;20072;-81
2022/11/01 00:42:58;;;;;;;301.55;24.50;;;;;;;15.77;86.03;98588.25;5298976;27;20045;-81
2022/11/01 00:45:25;;;;;;;423.50;26.42;;;;;;;16.70;81.40;98582.94;5299171;27;20090;-81
2022/11/01 00:47:52;;;;;;;379.08;25.65;;;;;;;16.53;82.24;98587.44;5299263;27;20069;-81
2022/11/01 00:50:19;;;;;;;152.60;15.07;;;;;;;15.98;85.02;98588.81;5298882;27;20067;-80
2022/11/01 00:52:46;;;;;;;296.67;23.23;;;;;;;16.80;81.88;98593.66;5299297;27;20309;-80
2022/11/01 00:55:13;;;;;;;88.68;10.60;;;;;;;16.42;83.73;98593.25;5298994;27;20060;-80
2022/11/01 00:57:41;;;;;;;340.08;23.60;;;;;;;15.77;85.02;98593.44;5298744;27;20061;-80
2022/11/01 01:00:08;;;;;;;277.50;18.90;;;;;;;16.06;84.92;98583.19;5279742;27;20400;-80
2022/11/01 01:02:35;;;;;;;314.30;19.37;;;;;;;16.62;81.96;98581.69;5298804;27;20138;-80
2022/11/01 01:05:03;;;;;;;482.85;28.62;;;;;;;15.37;87.20;98579.12;5279533;27;20059;-80
2022/11/01 01:07:30;;;;;;;501.98;27.65;;;;;;;15.97;84.90;98575.91;5299115;27;20062;-80
2022/11/01 01:09:57;;;;;;;443.77;25.70;;;;;;;15.94;85.53;98576.03;5298830;27;20057;-80
2022/11/01 01:12:23;;;;;;;521.85;29.20;;;;;;;16.48;83.19;98579.84;5299069;27;20049;-80
2022/11/01 01:14:50;;;;;;;512.08;27.92;;;;;;;15.61;86.60;98580.44;5298555;27;20049;-80
2022/11/01 01:17:18;;;;;;;570.58;32.47;;;;;;;16.04;84.72;98575.44;5298531;27;20061;-80
2022/11/01 01:19:44;;;;;;;280.27;15.23;;;;;;;16.31;84.09;98569.59;5299002;27;20114;-80
2022/11/01 01:22:11;;;;;;;394.98;24.25;;;;;;;15.72;85.45;98581.59;5299032;27;20049;-80
2022/11/01 01:24:44;;;;;;;586.72;32.85;;;;;;;16.07;84.26;98577.91;5298530;27;20060;-80
2022/11/01 01:27:11;;;;;;;158.87;12.88;;;;;;;16.27;83.94;98565.47;5299055;27;20114;-80
2022/11/01 01:29:42;;;;;;;628.97;36.35;;;;;;;14.97;88.41;98570.00;5298745;27;20324;-80
2022/11/01 01:32:20;;;;;;;556.35;28.15;;;;;;;15.12;89.56;98573.56;5298787;27;20108;-80
2022/11/01 01:34:47;;;;;;;504.85;27.48;;;;;;;14.92;90.29;98567.66;5298861;27;20396;-80
2022/11/01 01:37:14;;;;;;;468.52;28.62;;;;;;;15.50;87.96;98568.91;5299017;27;20057;-81
2022/11/01 01:39:41;;;;;;;82.07;9.88;;;;;;;15.74;85.51;98559.81;5298801;27;20050;-81
2022/11/01 01:42:29;;;;;;;424.73;29.67;;;;;;;15.20;87.21;98558.38;5299991;27;20049;-81
2022/11/01 01:44:56;;;;;;;407.48;22.08;;;;;;;15.48;87.04;98560.34;5299539;27;20057;-81
2022/11/01 01:47:28;;;;;;;390.10;24.42;;;;;;;15.56;85.96;98563.38;5299773;27;20064;-81
2022/11/01 01:50:09;;;;;;;413.52;28.55;;;;;;;15.82;84.64;98555.00;5280656;27;20072;-81
2022/11/01 01:53:02;;;;;;;340.35;21.17;;;;;;;15.94;84.06;98543.03;5299605;27;20049;-81
2022/11/01 01:55:36;;;;;;;408.12;24.08;;;;;;;16.02;82.32;98553.03;5299812;27;20045;-81
2022/11/01 01:58:03;;;;;;;570.10;32.13;;;;;;;15.74;84.06;98557.19;5299936;27;20065;-81
2022/11/01 02:00:30;;;;;;;420.55;25.88;;;;;;;15.43;85.51;98552.81;5299341;27;20052;-81
2022/11/01 02:02:57;;;;;;;601.30;32.80;;;;;;;15.29;86.24;98548.34;5299903;27;20052;-81
2022/11/01 02:05:53;;;;;;;507.05;28.67;;;;;;;15.75;84.89;98542.44;5299785;27;20056;-81
2022/11/01 02:08:27;;;;;;;372.95;27.35;;;;;;;14.92;87.45;98546.03;5298527;26;20491;-81
2022/11/01 02:10:58;;;;;;;520.12;30.77;;;;;;;16.07;82.35;98541.44;5281522;27;20065;-81
2022/11/01 02:13:25;;;;;;;445.75;27.42;;;;;;;15.72;85.30;98550.38;5279846;27;20544;-81
2022/11/01 02:16:06;;;;;;;601.60;35.60;;;;;;;15.61;83.80;98550.97;5299712;27;20064;-81
2022/11/01 02:18:59;;;;;;;173.02;11.93;;;;;;;16.08;82.36;98548.31;5280400;27;20066;-81
2022/11/01 02:21:32;;;;;;;688.75;35.42;;;;;;;14.70;89.74;98552.34;5280130;27;20057;-81
2022/11/01 02:24:27;;;;;;;662.20;33.63;;;;;;;14.95;87.77;98543.25;5299957;27;20094;-81
2022/11/01 02:27:12;;;;;;;686.17;33.65;;;;;;;15.19;86.57;98546.31;5299368;27;20065;-81
2022/11/01 02:29:51;;;;;;;574.72;32.75;;;;;;;15.19;86.90;98548.91;5299825;27;20092;-81
2022/11/01 02:32:37;;;;;;;487.15;29.90;;;;;;;15.61;84.80;98541.41;5299905;27;20057;-81
2022/11/01 02:35:11;;;;;;;518.28;31.23;;;;;;;15.60;84.15;98544.94;5299400;27;20061;-81
2022/11/01 02:37:45;;;;;;;443.90;30.73;;;;;;;15.63;85.67;98546.56;5280327;27;20423;-81
2022/11/01 02:40:24;;;;;;;449.42;30.23;;;;;;;15.28;84.21;98540.63;5299813;27;20416;-81
2022/11/01 02:42:56;;;;;;;445.05;28.33;;;;;;;16.00;81.92;98536.69;5299502;27;20404;-81
2022/11/01 02:45:29;;;;;;;227.38;16.60;;;;;;;15.44;84.97;98538.06;5280261;27;20063;-81
2022/11/01 02:47:57;;;;;;;367.17;22.62;;;;;;;15.19;85.26;98522.91;5299150;27;20561;-81
2022/11/01 02:50:29;;;;;;;151.77;17.92;;;;;;;15.13;85.67;98518.91;5299812;27;20609;-81
2022/11/01 02:52:57;;;;;;;354.85;22.65;;;;;;;14.41;88.39;98517.44;5280172;27;20484;-81
2022/11/01 02:55:29;;;;;;;227.23;19.20;;;;;;;14.71;88.65;98527.19;5279840;27;20057;-81
2022/11/01 02:58:04;;;;;;;144.18;12.68;;;;;;;15.03;87.84;98520.31;5299652;27;20045;-81
2022/11/01 03:00:34;;;;;;;449.10;31.45;;;;;;;15.33;85.55;98523.03;5299725;27;20068;-81
2022/11/01 03:03:21;;;;;;;545.50;29.33;;;;;;;15.44;85.12;98517.25;5279868;27;20423;-81
2022/11/01 03:06:12;;;;;;;;;;;;;;;15.24;85.67;98524.38;5280612;27;20403;-81
2022/11/01 03:08:43;;;;;;;386.80;26.77;;;;;;;15.22;85.21;98518.41;5299208;27;19948;-81
2022/11/01 03:11:13;;;;;;;675.60;38.78;;;;;;;15.91;82.24;98514.59;5299767;27;20057;-81
2022/11/01 03:14:18;;;;;;;653.28;33.78;;;;;;;14.87;86.20;98525.47;5299492;27;20068;-81
2022/11/01 03:17:03;;;;;;;564.35;33.13;;;;;;;14.35;90.64;98528.09;5298848;27;20073;-81
2022/11/01 03:19:46;;;;;;;465.25;26.52;;;;;;;15.94;82.19;98534.41;5299473;27;20042;-81
2022/11/01 03:22:39;;;;;;;638.80;34.08;;;;;;;15.45;83.82;98535.34;5280209;27;20139;-81
2022/11/01 03:25:38;;;;;;;566.03;31.37;;;;;;;15.79;83.08;98534.34;5280313;27;20061;-81
2022/11/01 03:28:00;;;;;;;580.58;41.03;;;;;;;15.59;84.01;98530.22;5299580;27;20053;-81
2022/11/01 03:30:29;;;;;;;537.60;33.92;;;;;;;15.27;85.33;98532.00;5279774;27;20076;-81
2022/11/01 03:32:56;;;;;;;447.37;30.73;;;;;;;14.98;85.49;98524.91;5280150;27;20074;-81
2022/11/01 03:35:26;;;;;;;460.25;27.80;;;;;;;15.12;85.23;98525.03;5280039;27;20075;-81
2022/11/01 03:37:58;;;;;;;190.02;16.87;;;;;;;15.69;83.18;98528.00;5279600;27;20053;-81
2022/11/01 03:40:27;;;;;;;310.67;23.67;;;;;;;15.15;85.35;98535.25;5299581;27;20040;-81
2022/11/01 03:42:59;;;;;;;360.90;25.15;;;;;;;16.09;86.57;98528.34;5280348;27;20080;-81
2022/11/01 03:45:29;;;;;;;480.73;27.35;;;;;;;15.58;82.97;98527.72;5299104;27;20065;-81
2022/11/01 03:47:56;;;;;;;282.67;21.62;;;;;;;16.56;78.31;98529.94;5280081;27;20057;-81
2022/11/01 03:50:26;;;;;;;308.80;23.40;;;;;;;15.79;81.43;98516.13;5299578;27;20098;-81
2022/11/01 03:52:53;;;;;;;421.20;25.70;;;;;;;15.40;83.57;98511.34;5299117;27;20061;-81
2022/11/01 03:55:21;;;;;;;362.90;21.23;;;;;;;15.91;81.77;98517.22;5299404;27;20468;-81
2022/11/01 03:57:49;;;;;;;415.45;23.23;;;;;;;15.18;84.64;98516.88;5299098;27;20076;-81
2022/11/01 04:00:19;;;;;;;516.47;29.70;;;;;;;15.11;85.12;98504.31;5299397;27;20060;-81
2022/11/01 04:02:49;;;;;;;426.83;27.98;;;;;;;15.66;83.30;98502.16;5299451;27;20061;-81
2022/11/01 04:05:17;;;;;;;356.05;22.08;;;;;;;15.66;82.85;98504.75;5299014;27;20064;-81
2022/11/01 04:07:45;;;;;;;459.75;26.85;;;;;;;15.54;82.99;98508.84;5299332;27;20106;-81
2022/11/01 04:10:12;;;;;;;258.75;19.98;;;;;;;15.94;82.16;98514.44;5299544;27;20395;-81
2022/11/01 04:12:39;;;;;;;397.67;25.83;;;;;;;16.36;78.51;98518.06;5299142;27;20058;-80
2022/11/01 04:21:10;;;;;;;473.48;28.55;;;;;;;14.77;86.06;98506.91;5299170;27;20084;-80
2022/11/01 04:23:37;;;;;;;414.92;25.48;;;;;;;15.55;83.62;98514.87;5299568;27;20061;-80
2022/11/01 04:26:05;;;;;;;245.10;17.73;;;;;;;15.80;81.64;98507.41;5279529;27;20076;-80
2022/11/01 04:28:32;;;;;;;454.50;30.33;;;;;;;15.85;82.54;98512.38;5299416;27;20057;-80
2022/11/01 04:30:59;;;;;;;529.47;29.45;;;;;;;15.51;83.33;98502.97;5299458;27;20410;-80
2022/11/01 04:33:25;;;;;;;485.80;28.67;;;;;;;15.25;84.33;98514.81;5298987;27;20072;-80
2022/11/01 04:35:52;;;;;;;517.53;31.10;;;;;;;16.11;80.51;98514.31;5299225;27;20468;-80
2022/11/01 04:38:19;;;;;;;529.40;32.60;;;;;;;15.75;83.14;98517.25;5299254;27;20348;-80
2022/11/01 04:40:46;;;;;;;223.05;15.63;;;;;;;15.95;81.72;98510.94;5298805;27;20041;-80
2022/11/01 04:43:13;;;;;;;552.28;32.67;;;;;;;15.71;82.25;98507.94;5299257;27;20061;-80
2022/11/01 04:45:40;;;;;;;541.25;30.42;;;;;;;15.84;82.09;98498.53;5299296;27;20057;-80
2022/11/01 04:48:12;;;;;;;442.42;28.50;;;;;;;14.23;88.85;98492.41;5298765;27;20065;-80
2022/11/01 04:50:40;;;;;;;350.67;26.25;;;;;;;15.51;84.75;98489.97;5299234;27;20082;-80
2022/11/01 04:53:08;;;;;;;323.30;20.65;;;;;;;15.54;83.33;98488.03;5299249;27;20072;-80
2022/11/01 04:55:35;;;;;;;562.38;31.35;;;;;;;14.90;87.22;98482.91;5298782;27;20114;-80
2022/11/01 04:58:03;;;;;;;264.35;18.48;;;;;;;15.50;84.62;98489.12;5299029;27;20100;-80
2022/11/01 05:00:31;;;;;;;599.67;31.92;;;;;;;15.41;83.24;98496.59;5299156;27;20049;-80
2022/11/01 05:03:03;;;;;;;490.75;34.25;;;;;;;15.01;85.82;98489.22;5298843;27;20056;-80
2022/11/01 05:05:31;;;;;;;583.38;34.85;;;;;;;16.70;78.15;98494.34;5298979;27;20377;-80
2022/11/01 05:08:16;;;;;;;492.40;27.27;;;;;;;15.88;81.57;98494.81;5298558;27;20052;-80
2022/11/01 05:10:43;;;;;;;540.78;32.38;;;;;;;16.06;81.30;98495.53;5299236;27;20045;-80
2022/11/01 05:13:12;;;;;;;486.58;25.00;;;;;;;15.80;82.14;98481.41;5299150;27;20080;-80
2022/11/01 05:15:39;;;;;;;422.02;26.83;;;;;;;15.21;84.39;98490.75;5299049;27;20053;-80
2022/11/01 05:18:26;;;;;;;514.47;31.12;;;;;;;15.48;82.76;98480.56;5299710;27;20347;-80
2022/11/01 05:20:53;;;;;;;289.30;23.62;;;;;;;15.25;84.48;98488.81;5300052;27;20045;-80
2022/11/01 05:23:20;;;;;;;582.42;40.92;;;;;;;15.10;84.93;98484.44;5299596;27;20067;-80
2022/11/01 05:25:46;;;;;;;608.78;40.88;;;;;;;14.41;87.98;98477.66;5299928;27;20057;-80
2022/11/01 05:28:13;;;;;;;471.37;31.12;;;;;;;14.97;85.47;98479.88;5299973;27;20050;-80
2022/11/01 05:30:41;;;;;;;581.83;32.53;;;;;;;14.72;86.43;98484.72;5299751;27;20053;-80
2022/11/01 05:33:09;;;;;;;546.78;35.45;;;;;;;15.05;84.57;98485.53;5299953;27;20057;-80
2022/11/01 05:35:36;;;;;;;339.30;25.10;;;;;;;15.36;83.60;98481.25;5280519;27;20075;-80
2022/11/01 05:38:04;;;;;;;410.10;30.23;;;;;;;14.53;86.67;98481.41;5299492;27;20408;-80
2022/11/01 05:40:31;;;;;;;484.02;33.50;;;;;;;14.80;86.05;98476.53;5300067;27;20053;-80
2022/11/01 05:42:58;;;;;;;418.33;28.00;;;;;;;15.41;83.07;98483.59;5280503;27;20069;-80
2022/11/01 05:45:25;;;;;;;512.17;32.85;;;;;;;14.97;83.81;98492.03;5299403;27;20061;-80
2022/11/01 05:47:52;;;;;;;228.30;18.70;;;;;;;15.40;83.41;98487.94;5299942;27;20060;-80
2022/11/01 05:50:19;;;;;;;406.70;27.08;;;;;;;15.00;84.09;98497.09;5299593;27;20109;-80
2022/11/01 05:52:47;;;;;;;428.23;29.87;;;;;;;14.40;87.36;98492.37;5299964;27;20060;-80
2022/11/01 05:55:14;;;;;;;474.12;32.47;;;;;;;15.19;84.05;98496.94;5299905;27;20057;-80
2022/11/01 05:57:41;;;;;;;375.27;26.42;;;;;;;15.38;83.11;98491.56;5299524;27;20072;-80
2022/11/01 06:00:09;;;;;;;392.65;26.35;;;;;;;15.37;82.38;98487.28;5300008;27;20056;-80
2022/11/01 06:02:36;;;;;;;450.17;28.17;;;;;;;15.45;82.47;98487.72;5299855;27;20057;-80
2022/11/01 06:05:03;;;;;;;228.07;17.65;;;;;;;14.43;86.80;98489.63;5299471;27;20434;-80
2022/11/01 06:07:30;;;;;;;162.90;15.15;;;;;;;14.85;85.11;98490.94;5299870;27;20328;-80
2022/11/01 06:09:56;;;;;;;261.17;18.58;;;;;;;15.20;84.29;98496.00;5299938;27;20400;-81
2022/11/01 06:12:24;;;;;;;361.60;24.52;;;;;;;14.69;87.16;98490.91;5299531;27;20079;-81
2022/11/01 06:14:51;;;;;;;459.65;27.52;;;;;;;14.90;85.71;98501.94;5299576;27;20442;-81
2022/11/01 06:17:18;;;;;;;544.15;32.63;;;;;;;14.82;86.79;98488.50;5300114;27;20595;-81
2022/11/01 06:19:45;;;;;;;495.25;31.83;;;;;;;15.09;85.11;98496.59;5299329;27;20056;-81
2022/11/01 06:22:12;;;;;;;584.87;32.97;;;;;;;16.15;80.60;98496.72;5299753;27;20119;-80
2022/11/01 06:24:38;;;;;;;312.33;26.12;;;;;;;15.26;84.14;98499.13;5299713;27;20324;-80
2022/11/01 06:27:05;;;;;;;429.42;27.27;;;;;;;15.30;84.13;98499.78;5299085;27;20049;-80
2022/11/01 06:29:38;;;;;;;592.85;33.83;;;;;;;15.33;83.82;98500.47;5299931;27;20082;-80
2022/11/01 06:32:05;;;;;;;629.20;40.28;;;;;;;15.56;83.24;98508.75;5299825;27;20392;-80
2022/11/01 06:34:32;;;;;;;550.25;31.95;;;;;;;15.27;85.54;98521.59;5299360;27;20072;-81
2022/11/01 06:36:59;;;;;;;122.25;12.27;;;;;;;15.52;83.12;98517.63;5299817;27;20406;-81
2022/11/01 06:39:26;;;;;;;604.87;36.38;;;;;;;15.69;83.45;98516.75;5299275;27;20045;-81
2022/11/01 06:41:53;;;;;;;528.78;28.87;;;;;;;15.50;83.14;98512.53;5299674;27;20122;-81
2022/11/01 06:44:20;;;;;;;671.03;37.78;;;;;;;15.04;85.67;98511.59;5299654;27;20392;-81
2022/11/01 06:46:47;;;;;;;457.62;31.70;;;;;;;15.36;85.12;98511.62;5299352;27;20086;-81
2022/11/01 06:49:14;;;;;;;473.77;32.53;;;;;;;16.37;80.22;98519.75;5299707;27;20041;-81
2022/11/01 06:51:45;;;;;;;583.53;33.78;;;;;;;16.60;79.23;98521.03;5299801;27;20522;-81
2022/11/01 06:54:12;;;;;;;496.35;31.02;;;;;;;15.89;82.06;98525.09;5299236;27;20058;-81
2022/11/01 06:56:39;;;;;;;492.20;30.05;;;;;;;15.60;83.54;98518.94;5299839;27;20049;-81
2022/11/01 06:59:06;;;;;;;544.88;36.28;;;;;;;16.70;79.07;98524.78;5299606;27;20045;-81
2022/11/01 07:01:33;;;;;;;432.73;27.25;;;;;;;16.75;78.52;98520.97;5299257;27;20072;-81
2022/11/01 07:04:00;;;;;;;501.85;28.50;;;;;;;16.59;79.53;98522.78;5299611;27;20113;-81
2022/11/01 07:06:29;;;;;;;520.75;27.67;;;;;;;16.26;80.62;98528.19;5299326;27;20058;-81
2022/11/01 07:09:00;;;;;;;603.90;34.42;;;;;;;16.72;78.66;98523.75;5293873;27;141254;-80
2022/11/01 07:11:26;;;;;;;551.63;32.90;;;;;;;16.73;78.05;98522.81;5280291;27;20064;-80
2022/11/01 07:13:58;;;;;;;592.78;34.47;;;;;;;17.25;75.77;98526.62;5299580;27;20109;-80
2022/11/01 07:16:25;;;;;;;564.05;32.20;;;;;;;17.34;75.91;98523.44;5299066;27;20483;-80
2022/11/01 07:18:52;;;;;;;300.35;18.75;;;;;;;15.60;84.16;98515.50;5299532;27;20045;-80
2022/11/01 07:21:19;;;;;;;509.20;26.25;;;;;;;16.14;81.77;98524.53;5299280;27;20061;-80
2022/11/01 07:23:46;;;;;;;523.42;30.05;;;;;;;15.76;83.44;98512.88;5299705;27;20069;-80
2022/11/01 07:26:13;;;;;;;535.67;33.40;;;;;;;16.06;81.85;98518.12;5299445;27;20053;-80
2022/11/01 07:28:40;;;;;;;556.95;31.20;;;;;;;16.83;78.30;98514.47;5279836;27;20419;-80
2022/11/01 07:31:07;;;;;;;569.10;35.83;;;;;;;16.05;81.51;98513.81;5299627;27;20057;-80
2022/11/01 07:33:34;;;;;;;498.65;31.17;;;;;;;15.83;82.64;98519.41;5299617;27;20061;-80
2022/11/01 07:36:01;;;;;;;451.02;29.75;;;;;;;15.63;83.27;98512.75;5299119;27;20434;-80
2022/11/01 07:38:28;;;;;;;432.17;28.58;;;;;;;17.32;77.40;98523.50;5299488;27;20053;-80
2022/11/01 07:40:55;;;;;;;382.27;27.20;;;;;;;16.76;78.72;98532.22;5299648;27;20060;-80
2022/11/01 07:43:22;;;;;;;389.75;25.37;;;;;;;16.69;80.08;98526.56;5299175;27;20076;-80
2022/11/01 07:45:49;;;;;;;482.60;28.55;;;;;;;16.62;79.72;98535.63;5299382;27;20054;-80
2022/11/01 07:48:17;;;;;;;230.50;20.92;;;;;;;16.83;78.50;98523.09;5299530;27;20049;-80
2022/11/01 07:50:44;;;;;;;332.30;24.52;;;;;;;17.83;74.18;98515.94;5299096;27;20053;-80
2022/11/01 07:53:14;;;;;;;361.05;25.62;;;;;;;17.01;77.60;98522.00;5299636;27;20449;-80
2022/11/01 07:55:41;;;;;;;259.55;19.48;;;;;;;16.74;79.44;98521.06;5299413;27;20067;-80
2022/11/01 07:58:10;;;;;;;303.35;21.90;;;;;;;16.96;77.74;98520.59;5299192;27;20055;-80
2022/11/01 08:00:38;;;;;;;380.55;25.80;;;;;;;16.86;77.95;98524.69;5299659;27;20060;-80
2022/11/01 08:03:06;;;;;;;249.18;18.12;;;;;;;16.83;78.95;98517.06;5299358;27;20114;-80
2022/11/01 08:05:33;;;;;;;432.80;28.42;;;;;;;16.81;79.42;98519.75;5299059;27;20099;-80
2022/11/01 08:08:01;;;;;;;363.80;27.23;;;;;;;17.16;77.82;98514.16;5299459;27;20118;-80
2022/11/01 08:10:28;;;;;;;140.27;15.30;;;;;;;17.62;76.72;98512.91;5279854;27;20057;-80
2022/11/01 08:13:07;;;;;;;215.18;20.77;;;;;;;17.55;75.83;98514.25;5299565;27;20506;-80
2022/11/01 08:15:34;;;;;;;323.50;21.25;;;;;;;17.47;76.28;98518.28;5299058;27;20049;-80
2022/11/01 08:18:01;;;;;;;119.07;15.20;;;;;;;16.78;78.57;98518.16;5298973;27;20094;-80
2022/11/01 08:20:28;;;;;;;270.15;21.17;;;;;;;17.02;77.91;98517.63;5299584;27;20130;-80
2022/11/01 08:22:55;;;;;;;153.77;19.52;;;;;;;17.29;75.74;98512.44;5299312;27;20053;-80
2022/11/01 08:25:23;;;;;;;33.78;10.77;;;;;;;16.94;78.10;98510.25;5298887;27;20050;-80
2022/11/01 08:27:50;;;;;;;38.38;12.35;;;;;;;16.09;81.15;98510.97;5299401;27;20487;-80
2022/11/01 08:30:18;;;;;;;312.83;22.85;;;;;;;16.43;80.97;98508.97;5299428;27;20072;-80
2022/11/01 08:32:45;;;;;;;259.45;23.42;;;;;;;16.39;81.84;98516.16;5299053;27;20393;-80
2022/11/01 08:35:12;;;;;;;188.20;21.62;;;;;;;16.12;83.98;98517.75;5299172;27;20426;-80
2022/11/01 08:37:51;;;;;;;88.43;17.27;;;;;;;16.95;79.72;98511.09;5299336;27;20045;-80
2022/11/01 08:40:19;;;;;;;41.08;17.27;;;;;;;17.38;77.67;98524.91;5298948;27;20049;-80
2022/11/01 08:42:47;;;;;;;47.15;15.65;;;;;;;17.56;77.01;98512.50;5299315;27;20127;-80
2022/11/01 08:45:14;;;;;;;107.47;18.58;;;;;;;16.48;81.02;98515.63;5299105;27;20054;-80
2022/11/01 08:47:41;;;;;;;77.53;18.35;;;;;;;16.24;82.49;98519.62;5298891;27;20056;-80
2022/11/01 08:50:10;;;;;;;48.95;17.30;;;;;;;17.46;77.36;98519.22;5281190;27;20064;-80
2022/11/01 08:52:37;;;;;;;63.03;17.87;;;;;;;18.30;74.44;98513.78;5301429;27;20052;-81
2022/11/01 08:55:05;;;;;;;121.95;19.60;;;;;;;18.59;72.37;98520.47;5301541;27;20410;-81
2022/11/01 08:57:33;;;;;;;171.15;21.30;;;;;;;17.77;74.45;98515.53;5301597;27;20045;-81
2022/11/01 09:00:00;;;;;;;76.30;16.87;;;;;;;18.28;73.39;98515.63;5301288;27;20061;-81
2022/11/01 09:02:27;;;;;;;184.20;19.05;;;;;;;17.42;78.24;98517.72;5301488;27;20076;-81
2022/11/01 09:04:54;;;;;;;44.13;11.88;;;;;;;17.18;77.37;98520.94;5301439;27;20132;-81
2022/11/01 09:07:20;;;;;;;85.55;17.02;;;;;;;17.77;74.76;98507.69;5301349;27;20059;-81
2022/11/01 09:09:47;;;;;;;43.00;18.10;;;;;;;16.77;79.40;98518.25;5301483;27;20053;-81
2022/11/01 09:12:14;;;;;;;33.97;16.25;;;;;;;16.73;80.66;98522.81;5301675;27;20080;-81
2022/11/01 09:14:47;;;;;;;61.30;17.87;;;;;;;18.13;74.20;98525.34;5300856;27;20050;-81
2022/11/01 09:17:14;;;;;;;70.07;18.73;;;;;;;18.26;73.37;98530.59;5301616;27;20475;-81
2022/11/01 09:19:41;;;;;;;46.05;16.73;;;;;;;18.02;74.02;98515.59;5301422;27;20076;-81
2022/11/01 09:22:08;;;;;;;88.25;18.37;;;;;;;17.13;76.48;98528.22;5301070;27;20072;-81
2022/11/01 09:24:35;;;;;;;56.15;16.80;;;;;;;18.42;72.11;98515.56;5301382;27;20110;-81
2022/11/01 09:27:02;;;;;;;33.92;14.60;;;;;;;17.59;75.25;98518.34;5301460;27;20045;-81
2022/11/01 09:29:29;;;;;;;45.17;17.77;;;;;;;17.34;75.28;98516.47;5301038;27;20060;-81
2022/11/01 09:31:56;;;;;;;46.00;17.50;;;;;;;16.41;81.29;98518.66;5301517;27;20121;-81
2022/11/01 09:34:23;;;;;;;39.38;16.83;;;;;;;17.75;74.68;98525.22;5301376;27;20350;-81
2022/11/01 09:36:50;;;;;;;44.92;17.67;;;;;;;16.84;78.87;98527.38;5301026;27;20045;-81
2022/11/01 09:39:20;;;;;;;49.60;17.80;;;;;;;17.59;76.14;98523.56;5301349;27;20061;-81
2022/11/01 09:42:01;;;;;;;58.40;19.05;;;;;;;17.27;75.80;98532.56;5301061;27;20065;-81
2022/11/01 09:44:36;;;;;;;43.25;17.45;;;;;;;18.05;74.57;98535.44;5301355;27;20049;-81
2022/11/01 09:47:12;;;;;;;47.20;17.98;;;;;;;18.46;71.91;98530.09;5281815;27;20153;-81
2022/11/01 09:49:40;;;;;;;38.92;16.73;;;;;;;17.23;76.47;98533.72;5281542;27;20065;-81
2022/11/01 09:52:20;;;;;;;41.05;19.12;;;;;;;17.76;75.36;98537.34;5281934;27;20083;-81
2022/11/01 09:54:47;;;;;;;34.45;17.35;;;;;;;18.38;73.63;98533.22;5301259;27;20414;-81
2022/11/01 09:57:14;;;;;;;37.40;16.37;;;;;;;17.11;77.38;98529.22;5281594;27;20053;-81
2022/11/01 10:00:12;;;;;;;38.58;16.25;;;;;;;17.77;75.62;98526.81;5301117;27;20109;-81
2022/11/01 10:02:57;;;;;;;34.42;16.62;;;;;;;17.79;75.69;98524.09;5280493;27;20068;-81
2022/11/01 10:05:50;;;;;;;36.08;16.65;;;;;;;17.59;76.06;98523.56;5299771;27;20426;-81
2022/11/01 10:08:17;;;;;;;40.35;18.73;;;;;;;17.67;74.92;98517.03;5299929;27;20049;-81
2022/11/01 10:11:06;;;;;;;38.30;17.80;;;;;;;18.43;74.59;98522.47;5279967;27;20061;-81
2022/11/01 10:13:43;;;;;;;37.70;15.85;;;;;;;20.01;66.85;98514.87;5280602;27;20064;-81
2022/11/01 10:16:22;;;;;;;37.70;17.70;;;;;;;19.11;68.32;98506.47;5299785;27;20057;-81
2022/11/01 10:19:03;;;;;;;38.92;18.30;;;;;;;18.88;71.56;98508.06;5299545;27;20553;-81
2022/11/01 10:21:41;;;;;;;35.83;16.60;;;;;;;18.44;71.79;98501.47;5299883;27;20386;-81
2022/11/01 10:24:31;;;;;;;37.58;16.10;;;;;;;17.78;73.84;98501.53;5280465;27;20395;-81
2022/11/01 10:27:13;;;;;;;38.20;16.20;;;;;;;18.03;73.39;98493.78;5280264;27;20715;-81
2022/11/01 10:29:44;;;;;;;34.92;16.83;;;;;;;18.31;73.21;98494.56;5299804;27;20045;-81
2022/11/01 10:32:46;;;;;;;34.55;15.30;;;;;;;18.41;73.74;98496.44;5299414;27;20072;-81
2022/11/01 10:35:17;;;;;;;41.10;18.90;;;;;;;17.81;74.48;98491.72;5299709;27;20061;-81
2022/11/01 10:37:49;;;;;;;39.13;18.98;;;;;;;18.09;75.75;98484.72;5299728;27;20045;-81
2022/11/01 10:40:40;;;;;;;38.00;17.95;;;;;;;18.53;72.74;98484.31;5300088;27;20049;-81
2022/11/01 10:43:17;;;;;;;38.63;17.35;;;;;;;18.67;73.13;98489.47;5280451;27;20173;-81
2022/11/01 10:45:45;;;;;;;34.70;15.70;;;;;;;18.42;73.77;98486.84;5280100;27;20117;-81
2022/11/01 10:48:29;;;;;;;34.30;16.85;;;;;;;18.45;72.42;98479.63;5299636;27;20448;-81
2022/11/01 10:50:59;;;;;;;35.83;15.75;;;;;;;17.78;76.20;98472.84;5299829;27;20089;-82
2022/11/01 10:53:27;;;;;;;33.20;15.98;;;;;;;18.54;73.34;98480.78;5299404;27;20507;-82
2022/11/01 10:55:57;;;;;;;33.83;15.68;;;;;;;18.65;74.58;98473.06;5280261;27;20071;-82
2022/11/01 10:58:41;;;;;;;29.95;15.02;;;;;;;19.15;73.39;98480.94;5299634;27;20064;-82
2022/11/01 11:01:11;;;;;;;34.83;15.90;;;;;;;20.47;67.70;98483.47;5299548;27;20062;-82
2022/11/01 11:03:40;;;;;;;31.52;16.08;;;;;;;22.14;61.07;98484.19;5299702;27;20061;-82
2022/11/01 11:06:12;;;;;;;29.35;14.98;;;;;;;22.42;61.21;98493.19;5299250;27;20058;-82
2022/11/01 11:08:41;;;;;;;30.70;14.60;;;;;;;22.77;57.34;98472.66;5280184;27;20064;-82
2022/11/01 11:11:13;;;;;;;28.58;14.93;;;;;;;22.78;56.11;98474.31;5299744;27;20053;-82
2022/11/01 11:13:44;;;;;;;32.97;16.08;;;;;;;23.06;56.69;98478.03;5279589;27;20057;-82
2022/11/01 11:16:25;;;;;;;29.35;15.30;;;;;;;23.01;56.31;98472.34;5299396;27;20101;-82
2022/11/01 11:19:00;;;;;;;29.95;14.07;;;;;;;23.28;54.80;98473.53;5299684;27;20053;-82
2022/11/01 11:21:31;;;;;;;29.23;14.45;;;;;;;21.24;59.75;98471.28;5299320;27;20399;-81
2022/11/01 11:23:58;;;;;;;29.42;12.35;;;;;;;21.55;58.85;98472.31;5299580;27;20110;-81
2022/11/01 11:26:25;;;;;;;30.27;14.57;;;;;;;19.67;65.06;98470.19;5280127;27;20412;-81
2022/11/01 11:28:55;;;;;;;34.75;17.08;;;;;;;19.10;68.88;98469.97;5279722;27;20132;-81
2022/11/01 11:31:27;;;;;;;28.77;12.80;;;;;;;18.23;72.73;98462.88;5280361;27;20053;-81
2022/11/01 11:34:00;;;;;;;36.80;16.15;;;;;;;18.64;70.83;98466.16;5354928;26;20114;-81